createdAt,value
2023-05-05T00:02:44.875Z,100793.28
2023-05-05T00:05:55.341Z,100790.47
2023-05-05T00:08:58.562Z,100790.31
2023-05-05T00:12:01.484Z,100792.44
2023-05-05T00:15:04.381Z,100795.78
2023-05-05T00:18:07.641Z,100798.06
2023-05-05T00:21:10.582Z,100793.81
2023-05-05T00:24:13.447Z,100800.28
2023-05-05T00:27:15.910Z,100796.50
2023-05-05T00:30:18.478Z,100792.69
2023-05-05T00:33:21.234Z,100779.63
2023-05-05T00:36:23.803Z,100790.16
2023-05-05T00:39:26.637Z,100790.00
2023-05-05T00:42:39.710Z,100780.59
2023-05-05T00:45:44.669Z,100782.56
2023-05-05T00:48:47.222Z,100786.19
2023-05-05T00:51:49.890Z,100779.78
2023-05-05T00:54:52.528Z,100791.25
2023-05-05T00:57:56.755Z,100782.56
2023-05-05T01:00:59.461Z,100776.09
2023-05-05T01:04:02.197Z,100778.75
2023-05-05T01:07:36.225Z,100792.22
2023-05-05T01:10:45.401Z,100782.53
2023-05-05T01:13:57.184Z,100785.91
2023-05-05T01:17:08.811Z,100765.13
2023-05-05T01:20:27.697Z,100770.91
2023-05-05T01:23:50.441Z,100770.03
2023-05-05T01:27:17.194Z,100767.66
2023-05-05T01:30:38.062Z,100774.13
2023-05-05T01:33:47.905Z,100768.22
2023-05-05T01:36:58.414Z,100770.31
2023-05-05T01:40:06.149Z,100767.66
2023-05-05T01:43:13.350Z,100773.00
2023-05-05T01:46:17.956Z,100771.56
2023-05-05T01:49:21.028Z,100780.00
2023-05-05T01:52:27.077Z,100774.53
2023-05-05T01:55:32.530Z,100765.69
2023-05-05T01:58:37.325Z,100767.94
2023-05-05T02:01:41.891Z,100767.94
2023-05-05T02:04:45.807Z,100761.44
2023-05-05T02:07:50.385Z,100773.53
2023-05-05T02:10:54.272Z,100769.00
2023-05-05T02:13:59.952Z,100765.31
2023-05-05T02:17:04.368Z,100760.31
2023-05-05T02:20:11.908Z,100766.03
2023-05-05T02:23:14.588Z,100756.06
2023-05-05T02:26:21.720Z,100756.06
2023-05-05T02:29:31.728Z,100755.06
2023-05-05T02:32:36.283Z,100765.84
2023-05-05T02:35:40.147Z,100752.44
2023-05-05T02:38:50.409Z,100767.56
2023-05-05T02:41:55.433Z,100753.41
2023-05-05T02:45:07.989Z,100762.91
2023-05-05T02:48:13.210Z,100758.13
2023-05-05T02:51:16.447Z,100770.84
2023-05-05T02:54:19.573Z,100764.38
2023-05-05T02:57:36.131Z,100770.56
2023-05-05T03:00:43.015Z,100770.69
2023-05-05T03:04:07.453Z,100763.81
2023-05-05T03:07:21.977Z,100768.69
2023-05-05T03:10:31.510Z,100763.78
2023-05-05T03:13:40.627Z,100766.31
2023-05-05T03:16:45.088Z,100766.84
2023-05-05T03:19:48.558Z,100770.25
2023-05-05T03:22:52.251Z,100770.09
2023-05-05T03:25:54.887Z,100765.19
2023-05-05T03:29:18.173Z,100768.50
2023-05-05T03:32:23.687Z,100768.78
2023-05-05T03:35:29.721Z,100765.16
2023-05-05T03:38:32.919Z,100760.78
2023-05-05T03:41:35.487Z,100766.31
2023-05-05T03:44:39.356Z,100763.78
2023-05-05T03:47:42.807Z,100772.59
2023-05-05T03:50:45.874Z,100768.50
2023-05-05T03:53:50.165Z,100771.63
2023-05-05T03:56:53.039Z,100774.03
2023-05-05T03:59:55.840Z,100776.69
2023-05-05T04:02:58.493Z,100779.75
2023-05-05T04:06:01.297Z,100785.09
2023-05-05T04:09:06.211Z,100788.47
2023-05-05T04:12:08.828Z,100787.47
2023-05-05T04:15:11.796Z,100781.75
2023-05-05T04:18:16.072Z,100786.69
2023-05-05T04:21:19.017Z,100785.88
2023-05-05T04:24:25.061Z,100788.28
2023-05-05T04:27:30.416Z,100783.41
2023-05-05T04:30:34.860Z,100781.63
2023-05-05T04:33:37.849Z,100780.91
2023-05-05T04:36:41.280Z,100782.75
2023-05-05T04:39:44.533Z,100788.06
2023-05-05T04:42:47.603Z,100794.38
2023-05-05T04:45:54.241Z,100803.50
2023-05-05T04:48:59.416Z,100802.69
2023-05-05T04:52:02.404Z,100808.03
2023-05-05T04:55:05.932Z,100803.16
2023-05-05T04:58:09.219Z,100808.34
2023-05-05T05:01:11.815Z,100809.63
2023-05-05T05:04:18.591Z,100809.50
2023-05-05T05:07:21.415Z,100811.16
2023-05-05T05:10:24.203Z,100814.56
2023-05-05T05:13:26.745Z,100818.59
2023-05-05T05:16:29.347Z,100819.31
2023-05-05T05:19:32.551Z,100823.50
2023-05-05T05:22:38.325Z,100822.69
2023-05-05T05:25:44.334Z,100818.53
2023-05-05T05:28:48.932Z,100822.47
2023-05-05T05:31:51.813Z,100828.34
2023-05-05T05:34:54.370Z,100829.34
2023-05-05T05:37:57.844Z,100823.03
2023-05-05T05:41:05.498Z,100831.16
2023-05-05T05:44:11.817Z,100834.38
2023-05-05T05:47:14.582Z,100837.47
2023-05-05T05:50:17.597Z,100841.25
2023-05-05T05:53:20.729Z,100842.41
2023-05-05T05:56:24.403Z,100837.88
2023-05-05T05:59:27.465Z,100842.66
2023-05-05T06:02:30.702Z,100843.31
2023-05-05T06:05:33.709Z,100845.00
2023-05-05T06:08:36.331Z,100840.34
2023-05-05T06:11:38.869Z,100836.81
2023-05-05T06:14:41.566Z,100845.44
2023-05-05T06:17:44.372Z,100840.91
2023-05-05T06:20:51.074Z,100836.09
2023-05-05T06:23:55.656Z,100841.13
2023-05-05T06:26:59.484Z,100833.22
2023-05-05T06:30:02.074Z,100833.72
2023-05-05T06:33:04.635Z,100822.13
2023-05-05T06:36:07.340Z,100823.50
2023-05-05T06:39:10.954Z,100817.84
2023-05-05T06:42:13.740Z,100817.97
2023-05-05T06:45:16.666Z,100825.34
2023-05-05T06:48:19.193Z,100822.38
2023-05-05T06:51:22.866Z,100820.09
2023-05-05T06:54:25.822Z,100824.94
2023-05-05T06:57:28.453Z,100823.91
2023-05-05T07:00:31.038Z,100815.03
2023-05-05T07:03:34.107Z,100816.41
2023-05-05T07:06:36.726Z,100809.81
2023-05-05T07:09:39.339Z,100813.41
2023-05-05T07:12:42.398Z,100824.34
2023-05-05T07:15:46.625Z,100817.63
2023-05-05T07:18:49.280Z,100811.34
2023-05-05T07:21:52.147Z,100813.91
2023-05-05T07:24:54.913Z,100807.16
2023-05-05T07:27:57.876Z,100803.69
2023-05-05T07:31:00.555Z,100805.28
